Terminal Aerodrome Forecast
Issued by NWS Sterling, VA

Home | Current Version | Previous Version | Text Only | Print | Product List | Glossary On
Versions: 1 2 3 4 5 6 7 8 9 10 11 12 13 14 15 16 17 18 19 20 21 22 23 24 25 26 27 28
922
FTUS41 KLWX 230237 AAA
TAFDCA
TAF AMD
KDCA 230237Z 2303/2324 04009KT 4SM -RA OVC004
     FM230600 07014G22KT 1 1/2SM RA OVC003
     FM230800 06017G31KT 2SM RA OVC003
     FM231100 07021G39KT 2SM RA OVC003
     FM231600 07015G32KT 1SM RA OVC003
     FM231800 07011G20KT 1SM -RA OVC003=

USA.gov is the U.S. government's official web portal to all federal, state and local government web resources and services.